Mistelbach, Austria
Current Conditions -  °F | °C
As of 10:50 PM on Tuesday 25 Nov 2014 (Local Time) from LOXT Reporting Station
Overcast Overcast  
Wind Chill: 35°   Ceiling: 2800
Heat Index: 39°   Visibility: 4mi
Dew Point: 37°   Wind: 6mph
Humidity: 93%   Direction: 50°NE
Pressure: 30.3"   Gusts: NA
Location:  48.57°N, 16.57°E
Report Text: LOXT 252050Z 05005KT 6000 OVC028SC 04/03 Q1026 RMK OVC
Loading
Personal Weather Stations






























Interactive Weather Map New forecast layout! Learn more

10-Day Weather Forecast

Advertisements
Track Severe Weather on mobile